Phelps, WI (54554)

12:09 AM CDT on August 21, 2017 (GMT -0500)
Misery Bay Boat Launch | | Change Station

Elev 1685 ft 46.16 °N, 89.12 °W | Updated 38 seconds ago

Mostly Cloudy
Mostly Cloudy
66.6 °F
Feels Like 66.6 °F
N
0.0
Wind Variable Wind from North

Today
High -- | Low -- °F
--% Chance of Precip.
Yesterday
High -- | Low -- °F
Precip. -- in
Pressure 30.05 in
Visibility 10.0 miles
Clouds Scattered Clouds 3300 ft
Dew Point 63 °F
Humidity 88%
Rainfall 0.00 in
Snow Depth Not available.
6:03 AM 7:54 PM
Waning Crescent, 0% visible
METAR KLNL 210455Z AUTO 32004KT 10SM SCT033 20/16 A3005 RMK AO2 T02020157
Pressure 30.05 in
Visibility 10.0 miles
Clouds Scattered Clouds 3300 ft
Dew Point 63 °F
Humidity 88%
Rainfall 0.00 in
Snow Depth Not available.
6:03 AM 7:54 PM
Waning Crescent, 0% visible
METAR KLNL 210455Z AUTO 32004KT 10SM SCT033 20/16 A3005 RMK AO2 T02020157

Get Severe Weather Alerts

Thanks for signing up!

Be on the lookout for a verification email in your inbox.

You'll start receiving the daily forecast at 6 AM.

×

10-Day Weather Forecast

Almanac

Astronomy

Aug. 21, 2017 Rise Set
Actual Time
Civil Twilight
Nautical Twilight
Astronomical Twilight
Moon
Length of Visible Light
Length of Day
Tomorrow will be .
, % of the Moon is Illuminated

Today's Extremes

State Highs State Lows

Community

WunderPhotos

Category 6

Welcome to Category 6. This is the collective home for Weather Underground's featured writeups by Dr. Jeff Masters (right), Bob Henson (left), Chris Burt, and other regular contributors.

Nearby

Air Quality

  Air Quality AQ Index Pollutant
Not available.

Snow Depth

Station Depth Elevation

Earthquake Activity

City Distance Mag. Time & Date
Minimum magnitude displayed is 2.5.

Coastal Water Temperatures

Place Temperature

Stations

Nearby Weather Stations

Station Location Temp. Windchill Dew Point Humidity Wind Precip. Elev Updated Type
                   

Watches & Warnings

There are currently no watches in effect.